Time;durP1;ratioP1;P1;durP2;ratioP2;P2;SDS_P1;SDS_P2;PMS_P1;PMS_P2;Temp;Humidity;BMP_temperature;BMP_pressure;BME280_temperature;BME280_humidity;BME280_pressure;Samples;Min_cycle;Max_cycle;Signal;HPM_P1;HPM_P2
2022/10/12 00:01:11;;;;;;;24.50;13.10;;;;;;;4.04;69.55;101178.70;127033;1280;107528;-72
2022/10/12 00:04:17;;;;;;;27.80;14.20;;;;;;;4.03;69.47;101174.75;126802;1285;107090;-71
2022/10/12 00:07:22;;;;;;;26.10;14.00;;;;;;;3.99;69.44;101175.14;127101;1286;107514;-72
2022/10/12 00:10:27;;;;;;;28.00;14.00;;;;;;;3.97;69.56;101176.16;126910;1278;108125;-70
2022/10/12 00:13:33;;;;;;;25.80;13.70;;;;;;;3.92;69.65;101176.20;126964;1278;106230;-71
2022/10/12 00:16:38;;;;;;;26.00;12.90;;;;;;;3.88;69.50;101175.02;126949;1285;107507;-70
2022/10/12 00:19:44;;;;;;;27.40;12.70;;;;;;;3.86;69.69;101177.41;126886;1271;108151;-72
2022/10/12 00:22:49;;;;;;;22.20;10.90;;;;;;;3.87;69.70;101179.00;126956;1278;107538;-71
2022/10/12 00:25:54;;;;;;;26.70;13.00;;;;;;;3.89;69.71;101179.55;126949;1271;107481;-71
2022/10/12 00:29:02;;;;;;;24.90;14.00;;;;;;;3.92;69.68;101178.48;127105;1272;107622;-71
2022/10/12 00:32:09;;;;;;;26.90;13.70;;;;;;;3.95;69.55;101178.88;127026;1272;107576;-72
2022/10/12 00:35:14;;;;;;;25.00;13.40;;;;;;;3.96;69.59;101182.17;126940;1271;107463;-72
2022/10/12 00:38:20;;;;;;;25.30;13.50;;;;;;;3.94;69.51;101185.81;126789;1279;105310;-70
2022/10/12 00:41:27;;;;;;;27.50;13.70;;;;;;;3.90;69.55;101187.59;127255;1277;107948;-72
2022/10/12 00:44:42;;;;;;;27.10;14.30;;;;;;;3.88;69.43;101190.39;127140;1272;107235;-70
2022/10/12 00:47:51;;;;;;;26.80;14.20;;;;;;;3.86;69.60;101189.25;127075;1278;107963;-69
2022/10/12 00:50:58;;;;;;;26.00;13.20;;;;;;;3.83;69.59;101189.05;126821;1279;108568;-72
2022/10/12 00:54:08;;;;;;;25.60;13.30;;;;;;;3.77;69.61;101186.39;126821;1280;106659;-73
2022/10/12 00:57:16;;;;;;;25.70;12.90;;;;;;;3.72;69.50;101187.05;127179;1286;108141;-72
2022/10/12 01:00:22;;;;;;;26.10;14.30;;;;;;;3.69;69.53;101188.41;127157;1286;107410;-71
2022/10/12 01:03:27;;;;;;;29.00;14.40;;;;;;;3.65;69.55;101191.84;127294;1278;107393;-71
2022/10/12 01:06:34;;;;;;;27.50;14.30;;;;;;;3.60;69.67;101193.14;127031;1272;107161;-72
2022/10/12 01:09:39;;;;;;;25.20;13.80;;;;;;;3.56;69.56;101192.14;127078;1278;107277;-70
2022/10/12 01:12:47;;;;;;;27.80;15.00;;;;;;;3.52;69.69;101190.61;126805;1285;107983;-70
2022/10/12 01:15:59;;;;;;;29.40;14.50;;;;;;;3.49;69.53;101192.55;126850;1272;106713;-71
2022/10/12 01:19:21;;;;;;;27.90;15.00;;;;;;;3.46;69.69;101192.88;126820;1272;107525;-70
2022/10/12 01:22:31;;;;;;;27.70;14.80;;;;;;;3.41;69.59;101191.59;126951;1285;107350;-72
2022/10/12 01:25:51;;;;;;;29.30;15.00;;;;;;;3.36;69.75;101193.40;126889;1279;106495;-71
2022/10/12 01:29:09;;;;;;;23.30;11.40;;;;;;;3.38;69.72;101195.27;126968;1271;107669;-72
2022/10/12 01:32:21;;;;;;;25.80;13.10;;;;;;;3.41;69.67;101194.02;126810;1285;107506;-71
2022/10/12 01:35:34;;;;;;;23.40;13.90;;;;;;;3.45;69.75;101193.77;127045;1286;107279;-70
2022/10/12 01:38:48;;;;;;;28.30;14.20;;;;;;;3.46;69.63;101197.77;127086;1272;107134;-69
2022/10/12 01:41:57;;;;;;;25.50;13.00;;;;;;;3.44;69.67;101195.79;126979;1279;107333;-70
2022/10/12 01:45:09;;;;;;;27.40;13.20;;;;;;;3.43;69.58;101199.19;126773;1280;107259;-70
2022/10/12 01:48:15;;;;;;;21.30;12.00;;;;;;;3.39;69.72;101203.80;126978;1279;107523;-72
2022/10/12 01:51:29;;;;;;;25.40;13.70;;;;;;;3.33;69.72;101206.40;127233;1285;107517;-71
2022/10/12 01:54:46;;;;;;;25.70;14.10;;;;;;;3.29;69.78;101209.42;127203;1278;107516;-71
2022/10/12 01:58:07;;;;;;;22.00;12.60;;;;;;;3.23;69.77;101209.59;127043;1279;107358;-71
2022/10/12 02:01:20;;;;;;;20.50;12.60;;;;;;;3.22;69.80;101217.23;127014;1286;106421;-73
2022/10/12 02:04:33;;;;;;;20.80;12.00;;;;;;;3.18;69.92;101219.34;126794;1288;107533;-72
2022/10/12 02:07:44;;;;;;;22.30;12.50;;;;;;;3.17;69.75;101219.45;126992;1286;107516;-72
2022/10/12 02:10:54;;;;;;;19.00;11.20;;;;;;;3.14;69.74;101216.40;127003;1279;106265;-73
2022/10/12 02:14:06;;;;;;;20.80;11.90;;;;;;;3.11;69.97;101216.40;126985;1286;107416;-71
2022/10/12 02:17:16;;;;;;;21.80;12.00;;;;;;;3.07;69.92;101219.02;126936;1271;107394;-71
2022/10/12 02:20:23;;;;;;;21.50;11.90;;;;;;;3.05;69.88;101218.46;126852;1271;107350;-73
2022/10/12 02:23:29;;;;;;;22.80;12.20;;;;;;;3.02;69.96;101217.20;127052;1279;107563;-72
2022/10/12 02:26:40;;;;;;;21.10;11.00;;;;;;;3.01;70.12;101220.80;127075;1279;107564;-72
2022/10/12 02:29:48;;;;;;;20.30;11.20;;;;;;;2.99;70.05;101218.77;127090;1284;107471;-72
2022/10/12 02:32:58;;;;;;;21.70;10.90;;;;;;;3.01;70.19;101218.85;127107;1278;107277;-72
2022/10/12 02:36:11;;;;;;;17.40;8.90;;;;;;;3.05;70.03;101221.78;127131;1278;107497;-74
2022/10/12 02:39:21;;;;;;;18.70;10.40;;;;;;;3.09;69.93;101223.17;127018;1279;107580;-73
2022/10/12 02:42:29;;;;;;;16.80;9.90;;;;;;;3.13;69.93;101223.65;127073;1278;107553;-73
2022/10/12 02:45:37;;;;;;;16.80;10.60;;;;;;;3.14;69.88;101226.41;127175;1278;108042;-72
2022/10/12 02:48:44;;;;;;;18.10;10.80;;;;;;;3.13;69.98;101225.40;127089;1272;108177;-73
2022/10/12 02:51:50;;;;;;;16.40;9.50;;;;;;;3.13;69.79;101227.88;126992;1279;107411;-73
2022/10/12 02:54:56;;;;;;;18.40;10.50;;;;;;;3.12;69.96;101228.27;127303;1286;107317;-74
2022/10/12 02:58:01;;;;;;;18.70;9.90;;;;;;;3.10;70.06;101226.94;127160;1278;107409;-75
2022/10/12 03:01:06;;;;;;;20.60;10.50;;;;;;;3.06;69.96;101228.80;127155;1278;107444;-74
2022/10/12 03:04:12;;;;;;;19.60;11.30;;;;;;;3.01;69.96;101228.16;127072;1278;107431;-75
2022/10/12 03:07:18;;;;;;;18.30;10.50;;;;;;;2.97;70.00;101227.30;127092;1270;107507;-73
2022/10/12 03:10:23;;;;;;;18.70;10.40;;;;;;;2.91;69.84;101230.40;127040;1272;106745;-74
2022/10/12 03:13:29;;;;;;;21.90;10.40;;;;;;;2.82;69.86;101229.52;127163;1278;107632;-74
2022/10/12 03:16:34;;;;;;;19.20;10.50;;;;;;;2.79;69.93;101225.79;127183;1278;106520;-75
2022/10/12 03:19:39;;;;;;;16.70;9.50;;;;;;;2.78;70.00;101220.91;126975;1278;107611;-72
2022/10/12 03:22:45;;;;;;;16.70;10.20;;;;;;;2.76;70.08;101222.79;126848;1278;107505;-73
2022/10/12 03:25:50;;;;;;;18.80;10.10;;;;;;;2.75;69.99;101225.46;127006;1279;107581;-73
2022/10/12 03:28:56;;;;;;;20.00;10.60;;;;;;;2.73;69.88;101226.08;126899;1278;106617;-74
2022/10/12 03:32:01;;;;;;;18.10;9.50;;;;;;;2.71;70.14;101226.02;126894;1286;107575;-73
2022/10/12 03:35:08;;;;;;;21.50;10.10;;;;;;;2.66;70.07;101225.03;126941;1279;107530;-73
2022/10/12 03:38:14;;;;;;;18.80;10.80;;;;;;;2.63;70.08;101225.91;127176;1279;107268;-75
2022/10/12 03:41:20;;;;;;;17.80;9.50;;;;;;;2.60;70.16;101225.15;127298;1272;107310;-73
2022/10/12 03:44:25;;;;;;;17.30;8.80;;;;;;;2.61;70.07;101224.06;127100;1279;107486;-74
2022/10/12 03:47:30;;;;;;;16.00;8.70;;;;;;;2.65;70.27;101226.50;127233;1279;107450;-74
2022/10/12 03:50:36;;;;;;;18.60;8.50;;;;;;;2.70;70.26;101228.00;127123;1272;107524;-75
2022/10/12 03:53:42;;;;;;;16.10;8.90;;;;;;;2.74;70.09;101226.58;127252;1278;107503;-76
2022/10/12 03:56:47;;;;;;;15.90;8.40;;;;;;;2.76;69.97;101226.64;127176;1286;107304;-73
2022/10/12 03:59:52;;;;;;;15.80;8.70;;;;;;;2.70;70.16;101226.58;126915;1271;107622;-73
2022/10/12 04:02:58;;;;;;;13.80;8.30;;;;;;;2.66;70.09;101228.36;126925;1278;107436;-75
2022/10/12 04:06:04;;;;;;;15.80;9.20;;;;;;;2.63;70.02;101226.06;127078;1278;107356;-74
2022/10/12 04:09:10;;;;;;;16.60;9.20;;;;;;;2.61;70.12;101227.23;126896;1279;108521;-73
2022/10/12 04:12:15;;;;;;;18.00;8.70;;;;;;;2.59;69.97;101228.41;126973;1278;107626;-74
2022/10/12 04:15:20;;;;;;;16.10;9.00;;;;;;;2.56;70.13;101229.42;126964;1278;107529;-74
2022/10/12 04:18:26;;;;;;;18.50;9.60;;;;;;;2.52;70.17;101229.96;127082;1285;107526;-74
2022/10/12 04:21:32;;;;;;;18.10;9.30;;;;;;;2.51;70.12;101229.48;126966;1286;105453;-74
2022/10/12 04:24:38;;;;;;;15.40;8.90;;;;;;;2.46;70.03;101230.79;126933;1271;107453;-77
2022/10/12 04:27:43;;;;;;;14.40;8.40;;;;;;;2.42;70.23;101233.84;126868;1278;107158;-72
2022/10/12 04:30:48;;;;;;;16.60;9.00;;;;;;;2.39;70.31;101237.80;126937;1286;107260;-73
2022/10/12 04:33:56;;;;;;;15.50;9.00;;;;;;;2.39;70.24;101238.19;127032;1279;107308;-72
2022/10/12 04:37:01;;;;;;;16.90;9.10;;;;;;;2.36;70.18;101239.88;127085;1271;107364;-73
2022/10/12 04:40:09;;;;;;;18.70;9.00;;;;;;;2.34;70.46;101241.05;126971;1272;107463;-73
2022/10/12 04:43:15;;;;;;;19.40;9.50;;;;;;;2.29;70.33;101241.82;127297;1278;107451;-73
2022/10/12 04:46:21;;;;;;;17.30;8.70;;;;;;;2.27;70.27;101245.23;127160;1279;108132;-72
2022/10/12 04:49:26;;;;;;;19.50;9.20;;;;;;;2.28;70.40;101246.63;127160;1279;107297;-75
2022/10/12 04:52:31;;;;;;;19.00;9.20;;;;;;;2.26;70.45;101248.64;127034;1278;107525;-73
2022/10/12 04:55:38;;;;;;;14.80;7.40;;;;;;;2.27;70.37;101249.85;126902;1279;106576;-73
2022/10/12 04:58:43;;;;;;;15.40;8.00;;;;;;;2.29;70.48;101249.52;127020;1272;107523;-73
2022/10/12 05:01:49;;;;;;;15.80;8.20;;;;;;;2.33;70.56;101247.40;126941;1272;106521;-73
2022/10/12 05:04:54;;;;;;;18.00;9.10;;;;;;;2.39;70.33;101248.70;126886;1278;107609;-71
2022/10/12 05:07:59;;;;;;;18.00;8.40;;;;;;;2.42;70.41;101248.38;126946;1278;107498;-72
2022/10/12 05:11:05;;;;;;;16.80;8.00;;;;;;;2.44;70.31;101252.17;127127;1272;107283;-74
2022/10/12 05:14:11;;;;;;;16.80;10.10;;;;;;;2.40;70.28;101252.89;127016;1286;107463;-73
2022/10/12 05:17:16;;;;;;;19.60;10.50;;;;;;;2.37;70.47;101253.52;127023;1278;107670;-73
2022/10/12 05:20:22;;;;;;;24.30;12.60;;;;;;;2.39;70.59;101261.17;126969;1285;107495;-73
2022/10/12 05:23:27;;;;;;;21.80;10.80;;;;;;;2.38;70.57;101262.42;126995;1278;107531;-73
2022/10/12 05:26:32;;;;;;;17.10;9.80;;;;;;;2.41;70.49;101266.36;126980;1271;107544;-73
2022/10/12 05:29:38;;;;;;;17.80;9.60;;;;;;;2.43;70.50;101266.60;127073;1278;107521;-73
2022/10/12 05:32:43;;;;;;;16.40;9.30;;;;;;;2.47;70.57;101273.75;126986;1279;107489;-74
2022/10/12 05:35:49;;;;;;;16.00;8.60;;;;;;;2.50;70.53;101275.19;126965;1271;108619;-73
2022/10/12 05:38:54;;;;;;;16.90;9.10;;;;;;;2.53;70.62;101272.41;126957;1278;107285;-72
2022/10/12 05:42:00;;;;;;;14.90;8.70;;;;;;;2.55;70.53;101276.36;126953;1285;107488;-74
2022/10/12 05:45:07;;;;;;;16.50;9.00;;;;;;;2.57;70.55;101276.27;126926;1286;107353;-71
2022/10/12 05:48:13;;;;;;;18.80;9.40;;;;;;;2.57;70.63;101274.88;126982;1279;107443;-73
2022/10/12 05:51:18;;;;;;;16.10;8.90;;;;;;;2.58;70.76;101279.72;126907;1286;107580;-72
2022/10/12 05:54:25;;;;;;;20.80;8.60;;;;;;;2.62;70.76;101280.92;127196;1285;107344;-72
2022/10/12 05:57:30;;;;;;;19.70;8.60;;;;;;;2.68;70.81;101282.73;127153;1278;107521;-74
2022/10/12 06:00:36;;;;;;;12.40;7.40;;;;;;;2.76;71.07;101280.58;127039;1278;106751;-73
2022/10/12 06:03:41;;;;;;;13.80;8.00;;;;;;;2.88;71.16;101280.34;127101;1278;107521;-73
2022/10/12 06:06:46;;;;;;;17.50;8.60;;;;;;;3.00;71.10;101277.80;127251;1272;106599;-73
2022/10/12 06:09:52;;;;;;;13.80;8.70;;;;;;;3.10;71.12;101280.95;127288;1284;107508;-73
2022/10/12 06:12:57;;;;;;;18.10;9.10;;;;;;;3.21;71.05;101278.28;127082;1278;106531;-73
2022/10/12 06:16:03;;;;;;;23.30;10.40;;;;;;;3.30;71.14;101282.35;126983;1284;107529;-74
2022/10/12 06:19:10;;;;;;;22.40;12.00;;;;;;;3.38;71.20;101285.83;127029;1284;108014;-73
2022/10/12 06:22:15;;;;;;;58.80;32.30;;;;;;;3.46;71.48;101289.81;127061;1279;109221;-73
2022/10/12 06:25:20;;;;;;;53.80;30.70;;;;;;;3.53;71.40;101285.38;126890;1285;107488;-72
2022/10/12 06:28:26;;;;;;;50.10;27.60;;;;;;;3.55;71.58;101288.61;126921;1279;107416;-73
2022/10/12 06:31:32;;;;;;;30.60;17.60;;;;;;;3.62;71.70;101291.40;126930;1279;107548;-72
2022/10/12 06:34:38;;;;;;;30.00;15.10;;;;;;;3.72;71.79;101297.19;126973;1279;107516;-71
2022/10/12 06:37:50;;;;;;;42.10;22.30;;;;;;;3.79;71.98;101297.00;127034;1286;107460;-75
2022/10/12 06:40:55;;;;;;;45.00;22.40;;;;;;;3.88;72.07;101297.20;126896;1286;107422;-72
2022/10/12 06:44:01;;;;;;;28.40;16.80;;;;;;;3.97;72.48;101294.59;126958;1278;105742;-74
2022/10/12 06:47:06;;;;;;;35.30;19.90;;;;;;;4.11;72.83;101292.57;127046;1286;106744;-74
2022/10/12 06:50:12;;;;;;;41.60;22.40;;;;;;;4.24;72.88;101297.66;126953;1278;107283;-72
2022/10/12 06:53:18;;;;;;;42.40;24.70;;;;;;;4.33;72.91;101296.96;126878;1279;105788;-72
2022/10/12 06:56:23;;;;;;;40.50;23.50;;;;;;;4.41;73.24;101299.17;126997;1278;107453;-74
2022/10/12 06:59:29;;;;;;;42.60;25.30;;;;;;;4.51;73.56;101296.69;127029;1272;108122;-74
2022/10/12 07:02:34;;;;;;;34.30;20.40;;;;;;;4.60;73.84;101296.66;126885;1280;107529;-72
2022/10/12 07:05:40;;;;;;;29.60;18.50;;;;;;;4.72;73.94;101296.66;127043;1285;107349;-74
2022/10/12 07:08:47;;;;;;;30.30;16.50;;;;;;;4.88;74.54;101294.52;126956;1278;107237;-74
2022/10/12 07:11:53;;;;;;;29.90;16.00;;;;;;;5.02;74.67;101294.39;127007;1278;107370;-73
2022/10/12 07:14:59;;;;;;;24.80;13.70;;;;;;;5.21;75.25;101297.29;126993;1278;107359;-74
2022/10/12 07:18:04;;;;;;;19.30;11.90;;;;;;;5.44;75.43;101301.38;126794;1288;107465;-75
2022/10/12 07:21:09;;;;;;;23.40;13.00;;;;;;;5.65;75.64;101299.23;127054;1279;105716;-73
2022/10/12 07:24:15;;;;;;;22.50;12.70;;;;;;;5.88;75.95;101306.38;126915;1285;107415;-74
2022/10/12 07:27:20;;;;;;;20.20;11.70;;;;;;;6.10;75.88;101298.35;127131;1279;107534;-74
2022/10/12 07:30:26;;;;;;;18.20;10.90;;;;;;;6.27;75.75;101298.83;127255;1285;106663;-75
2022/10/12 07:33:34;;;;;;;20.60;10.90;;;;;;;6.44;75.91;101295.05;127190;1284;107518;-74
2022/10/12 07:36:43;;;;;;;20.30;9.70;;;;;;;6.64;75.85;101295.03;127032;1285;107346;-75
2022/10/12 07:39:49;;;;;;;17.10;10.40;;;;;;;6.82;75.95;101295.02;127184;1278;107328;-74
2022/10/12 07:42:54;;;;;;;18.50;12.10;;;;;;;7.02;76.01;101299.33;127039;1278;107523;-74
2022/10/12 07:45:59;;;;;;;17.80;9.00;;;;;;;7.23;76.09;101296.15;126953;1278;107550;-74
2022/10/12 07:49:05;;;;;;;31.80;20.30;;;;;;;7.42;75.89;101292.52;127082;1285;107738;-73
2022/10/12 07:52:10;;;;;;;25.10;11.40;;;;;;;7.59;75.83;101286.08;127304;1279;109203;-73
2022/10/12 07:55:16;;;;;;;15.50;9.90;;;;;;;7.70;75.93;101285.09;127069;1279;107572;-73
2022/10/12 07:58:21;;;;;;;18.70;9.60;;;;;;;7.81;76.06;101285.90;126862;1279;107517;-73
2022/10/12 08:01:28;;;;;;;48.90;27.90;;;;;;;7.89;76.24;101283.73;126901;1285;107521;-73
2022/10/12 08:04:34;;;;;;;28.00;14.90;;;;;;;8.02;76.22;101283.36;126997;1279;107542;-75
2022/10/12 08:07:39;;;;;;;23.30;11.20;;;;;;;8.17;76.23;101282.44;127068;1278;107516;-73
2022/10/12 08:10:44;;;;;;;16.60;7.50;;;;;;;8.34;76.36;101280.09;126972;1272;107412;-72
2022/10/12 08:13:50;;;;;;;20.90;9.00;;;;;;;8.55;76.82;101281.04;126959;1279;107346;-74
2022/10/12 08:16:55;;;;;;;22.90;10.20;;;;;;;8.75;76.28;101282.09;127100;1279;107518;-72
2022/10/12 08:20:00;;;;;;;97.40;38.40;;;;;;;8.86;75.85;101281.06;127044;1278;107511;-72
2022/10/12 08:23:06;;;;;;;31.50;15.40;;;;;;;8.97;76.00;101279.84;127011;1278;107227;-72
2022/10/12 08:26:12;;;;;;;16.70;8.70;;;;;;;9.14;76.21;101281.39;127037;1279;107464;-73
2022/10/12 08:29:17;;;;;;;15.80;8.00;;;;;;;9.27;75.73;101279.86;126942;1285;107276;-72
2022/10/12 08:32:24;;;;;;;15.70;5.30;;;;;;;9.39;75.66;101281.38;126987;1286;107495;-73
2022/10/12 08:35:29;;;;;;;17.30;8.20;;;;;;;9.56;75.43;101281.86;127013;1279;107530;-73
2022/10/12 08:38:37;;;;;;;13.20;6.30;;;;;;;9.73;75.22;101280.49;127108;1279;107631;-74
2022/10/12 08:41:55;;;;;;;12.70;6.10;;;;;;;9.88;75.20;101280.53;127038;1279;107459;-72
2022/10/12 08:45:18;;;;;;;14.00;5.10;;;;;;;10.03;74.93;101280.06;127129;1278;107498;-73
2022/10/12 08:48:28;;;;;;;8.90;4.30;;;;;;;10.11;74.72;101279.91;127082;1279;107314;-74
2022/10/12 08:51:40;;;;;;;11.90;5.30;;;;;;;10.19;74.14;101278.75;127004;1278;107431;-70
2022/10/12 08:54:45;;;;;;;;;;;;;;;10.29;74.47;101278.17;127085;1278;107383;-71
2022/10/12 08:57:50;;;;;;;9.20;3.50;;;;;;;10.37;74.36;101275.89;126960;1280;107098;-70
2022/10/12 09:01:02;;;;;;;10.80;3.70;;;;;;;10.42;74.25;101274.77;127024;1286;107602;-71
2022/10/12 09:04:16;;;;;;;11.80;4.10;;;;;;;10.46;73.60;101275.48;127204;1286;108069;-72
2022/10/12 09:07:27;;;;;;;9.90;3.60;;;;;;;10.52;73.67;101273.91;126923;1280;107867;-71
2022/10/12 09:10:44;;;;;;;8.70;3.30;;;;;;;10.57;74.07;101272.23;126968;1279;108017;-72
2022/10/12 09:13:57;;;;;;;10.50;4.00;;;;;;;10.63;73.29;101272.70;127025;1279;107986;-70
2022/10/12 09:17:22;;;;;;;10.90;3.90;;;;;;;10.75;72.57;101274.68;127112;1279;106630;-70
2022/10/12 09:20:30;;;;;;;8.20;3.60;;;;;;;10.91;73.02;101268.55;127045;1286;108000;-70
2022/10/12 09:23:40;;;;;;;7.70;3.60;;;;;;;11.01;71.51;101269.80;127079;1285;107591;-70
2022/10/12 09:26:50;;;;;;;9.60;3.50;;;;;;;11.12;71.29;101269.80;126976;1279;108048;-69
2022/10/12 09:29:58;;;;;;;8.80;3.30;;;;;;;11.20;70.25;101270.16;127083;1278;107977;-70
2022/10/12 09:33:22;;;;;;;9.30;4.30;;;;;;;11.29;69.76;101271.67;127069;1278;107562;-70
2022/10/12 09:36:33;;;;;;;8.00;2.60;;;;;;;11.37;71.05;101270.95;126844;1278;107544;-70
2022/10/12 09:39:40;;;;;;;8.60;3.00;;;;;;;11.45;69.93;101269.13;126838;1278;108101;-70
2022/10/12 09:42:47;;;;;;;7.80;2.40;;;;;;;11.51;69.22;101271.93;127027;1279;107819;-70
2022/10/12 09:45:53;;;;;;;5.00;2.40;;;;;;;11.56;70.51;101271.68;126839;1285;107324;-69
2022/10/12 09:49:00;;;;;;;6.70;2.30;;;;;;;11.58;70.77;101272.00;126913;1286;107533;-69
2022/10/12 09:52:06;;;;;;;7.10;2.90;;;;;;;11.59;70.81;101274.59;126806;1284;107358;-70
2022/10/12 09:55:25;;;;;;;7.70;3.00;;;;;;;11.57;70.64;101277.26;126761;1285;107913;-69
2022/10/12 09:58:34;;;;;;;6.80;2.10;;;;;;;11.49;68.94;101279.80;126863;1296;106891;-69
2022/10/12 10:01:40;;;;;;;6.80;2.40;;;;;;;11.51;69.50;101276.39;126974;1285;107975;-70
2022/10/12 10:04:46;;;;;;;5.90;2.50;;;;;;;11.55;70.10;101273.20;126833;1279;106490;-70
2022/10/12 10:07:52;;;;;;;5.50;2.70;;;;;;;11.60;69.97;101277.95;126788;1278;107997;-69
2022/10/12 10:11:00;;;;;;;5.30;2.40;;;;;;;11.63;70.00;101273.20;126973;1285;107751;-69
2022/10/12 10:14:06;;;;;;;7.10;2.30;;;;;;;11.70;70.00;101276.01;126913;1278;107390;-71
2022/10/12 10:17:17;;;;;;;7.90;2.30;;;;;;;11.77;69.20;101277.44;127128;1278;107784;-70
2022/10/12 10:20:31;;;;;;;5.70;2.60;;;;;;;11.83;69.44;101271.80;127124;1278;107971;-70
2022/10/12 10:23:42;;;;;;;7.20;2.20;;;;;;;11.89;68.91;101272.92;127134;1284;107794;-70
2022/10/12 10:26:56;;;;;;;6.50;2.30;;;;;;;11.95;69.20;101275.21;127218;1278;108078;-71
2022/10/12 10:30:20;;;;;;;5.80;1.70;;;;;;;12.02;69.03;101270.70;127213;1278;108015;-71
2022/10/12 10:33:26;;;;;;;5.80;1.80;;;;;;;12.10;67.35;101271.70;127984;1279;108291;-71
2022/10/12 10:36:34;;;;;;;6.40;1.90;;;;;;;12.14;68.38;101269.02;127404;1279;107518;-71
2022/10/12 10:39:47;;;;;;;5.60;2.10;;;;;;;12.23;67.61;101266.68;127262;1278;110668;-70
2022/10/12 10:42:56;;;;;;;6.20;2.10;;;;;;;12.36;67.82;101261.36;127060;1286;107250;-70
2022/10/12 10:46:04;;;;;;;7.80;2.30;;;;;;;12.42;67.71;101255.64;127098;1285;107968;-70
2022/10/12 10:49:23;;;;;;;8.10;1.80;;;;;;;12.54;68.10;101255.90;127125;1278;107350;-70
2022/10/12 10:52:31;;;;;;;5.30;1.70;;;;;;;12.69;66.29;101254.63;127123;1279;110350;-70
2022/10/12 10:55:46;;;;;;;4.90;2.20;;;;;;;12.83;65.50;101253.45;127049;1278;107543;-70
2022/10/12 10:58:55;;;;;;;5.50;2.00;;;;;;;12.99;65.51;101248.44;126865;1280;107534;-69
2022/10/12 11:02:09;;;;;;;4.80;2.00;;;;;;;13.15;66.85;101247.60;127314;1272;108721;-70
2022/10/12 11:05:22;;;;;;;6.20;2.00;;;;;;;13.27;66.95;101252.04;127264;1278;107547;-71
2022/10/12 11:08:30;;;;;;;8.30;2.30;;;;;;;13.31;66.14;101245.98;127200;1285;106556;-71
2022/10/12 11:11:39;;;;;;;5.90;2.20;;;;;;;13.26;66.41;101247.11;127099;1280;107312;-71
2022/10/12 11:14:47;;;;;;;5.00;1.60;;;;;;;13.29;66.67;101244.50;127190;1285;107324;-71
2022/10/12 11:18:01;;;;;;;4.80;1.70;;;;;;;13.36;66.70;101235.26;127091;1285;106502;-71
2022/10/12 11:21:12;;;;;;;4.80;1.70;;;;;;;13.32;64.67;101241.66;127015;1285;106521;-71
2022/10/12 11:24:23;;;;;;;5.50;2.00;;;;;;;13.19;64.71;101241.87;126955;1286;107352;-71
2022/10/12 11:27:34;;;;;;;5.80;2.50;;;;;;;13.11;64.32;101236.25;126972;1279;107001;-73
2022/10/12 11:30:45;;;;;;;3.60;1.50;;;;;;;13.07;65.36;101233.59;126981;1286;107489;-72
2022/10/12 11:33:52;;;;;;;5.70;1.50;;;;;;;13.01;64.17;101236.27;126958;1286;107503;-72
2022/10/12 11:36:58;;;;;;;4.80;1.50;;;;;;;12.90;64.10;101236.18;126971;1285;106285;-69
2022/10/12 11:40:06;;;;;;;3.90;1.50;;;;;;;12.81;64.28;101234.55;126870;1286;108120;-75
2022/10/12 11:43:16;;;;;;;3.50;1.40;;;;;;;12.72;64.08;101229.98;127040;1292;107441;-76
2022/10/12 11:46:31;;;;;;;4.90;1.40;;;;;;;12.66;64.64;101229.71;126938;1286;107473;-79
2022/10/12 11:49:46;;;;;;;3.60;1.50;;;;;;;12.62;64.90;101229.02;127108;1291;106676;-76
2022/10/12 11:52:55;;;;;;;6.60;1.50;;;;;;;12.64;64.65;101226.30;126951;1279;107289;-73
2022/10/12 11:56:09;;;;;;;4.20;1.70;;;;;;;12.82;65.39;101221.06;126971;1279;107459;-76
2022/10/12 11:59:19;;;;;;;3.80;1.50;;;;;;;13.08;64.40;101221.88;126924;1286;107521;-76
2022/10/12 12:02:29;;;;;;;5.30;1.30;;;;;;;13.35;64.17;101216.79;126949;1284;108772;-72
2022/10/12 12:05:35;;;;;;;3.30;1.10;;;;;;;13.59;64.69;101211.39;126970;1279;107418;-70
2022/10/12 12:09:06;;;;;;;4.40;1.40;;;;;;;13.79;63.31;101213.45;126973;1280;106305;-70
2022/10/12 12:12:26;;;;;;;4.60;1.60;;;;;;;13.79;60.18;101210.46;127070;1285;107977;-68
2022/10/12 12:15:31;;;;;;;4.30;1.40;;;;;;;13.79;60.60;101212.86;126891;1280;107439;-67
2022/10/12 12:19:29;;;;;;;4.90;1.20;;;;;;;13.77;61.23;101212.06;126858;1279;108151;-68
2022/10/12 12:22:49;;;;;;;6.60;1.70;;;;;;;13.77;61.79;101209.13;126837;1285;108164;-75
2022/10/12 12:26:14;;;;;;;4.70;1.90;;;;;;;13.71;61.31;101212.40;127100;1278;107995;-69
2022/10/12 12:29:26;;;;;;;4.00;1.60;;;;;;;13.62;60.96;101206.89;126870;1285;107366;-70
2022/10/12 12:32:46;;;;;;;4.00;2.00;;;;;;;13.53;61.51;101204.88;127003;1280;107285;-70
2022/10/12 12:35:55;;;;;;;6.20;2.00;;;;;;;13.46;61.76;101210.95;126801;1285;108170;-70
2022/10/12 12:39:01;;;;;;;3.70;1.50;;;;;;;13.42;62.01;101208.96;126885;1278;108248;-71
2022/10/12 12:42:09;;;;;;;3.50;1.40;;;;;;;13.42;62.39;101208.98;127207;1286;107491;-72
2022/10/12 12:45:53;;;;;;;3.30;1.50;;;;;;;13.45;62.26;101211.55;128609;1285;107504;-78
2022/10/12 12:49:03;;;;;;;4.20;1.40;;;;;;;13.50;62.63;101210.30;128189;1286;107148;-74
2022/10/12 12:52:16;;;;;;;3.40;1.80;;;;;;;13.55;62.56;101207.91;126943;1278;107453;-78
2022/10/12 12:55:53;;;;;;;4.00;1.70;;;;;;;13.58;62.60;101204.91;127012;1284;107270;-77
2022/10/12 12:59:22;;;;;;;4.50;1.90;;;;;;;13.59;61.91;101207.49;127162;1284;107520;-78
2022/10/12 13:02:49;;;;;;;6.50;2.40;;;;;;;13.58;61.85;101205.96;127030;1284;107307;-79
2022/10/12 13:06:24;;;;;;;4.40;1.90;;;;;;;13.58;61.88;101208.35;127009;1285;107531;-78
2022/10/12 13:09:54;;;;;;;4.70;2.00;;;;;;;13.57;61.54;101207.53;126892;1278;107629;-78
2022/10/12 13:13:17;;;;;;;9.40;3.40;;;;;;;13.55;61.43;101209.10;127164;1285;107380;-76
2022/10/12 13:16:49;;;;;;;6.70;2.70;;;;;;;13.53;61.14;101205.79;127252;1284;107416;-77
2022/10/12 13:19:56;;;;;;;4.50;2.30;;;;;;;13.53;61.96;101207.33;127163;1285;107126;-75
2022/10/12 13:23:06;;;;;;;4.60;2.20;;;;;;;13.52;61.84;101204.73;127749;1286;107448;-80
2022/10/12 13:26:17;;;;;;;7.40;3.30;;;;;;;13.48;61.05;101208.07;127256;1285;107437;-76
2022/10/12 13:29:29;;;;;;;8.00;3.00;;;;;;;13.43;61.70;101204.98;127375;1280;107172;-80
2022/10/12 13:32:42;;;;;;;7.30;3.60;;;;;;;13.42;62.00;101206.34;127458;1285;107375;-78
2022/10/12 13:35:53;;;;;;;8.80;4.80;;;;;;;13.40;61.71;101203.46;127255;1284;107489;-77
2022/10/12 13:39:07;;;;;;;8.20;4.00;;;;;;;13.40;62.33;101202.61;127199;1285;107489;-79
2022/10/12 13:42:16;;;;;;;9.20;3.90;;;;;;;13.38;61.85;101202.45;126979;1286;107365;-81
2022/10/12 13:45:21;;;;;;;7.30;3.40;;;;;;;13.32;62.01;101202.40;127196;1285;108523;-78
2022/10/12 13:48:27;;;;;;;9.60;4.70;;;;;;;13.29;62.23;101197.82;127045;1284;107518;-78
2022/10/12 13:51:33;;;;;;;9.10;4.30;;;;;;;13.27;62.27;101191.45;127102;1280;107531;-78
2022/10/12 13:54:42;;;;;;;11.20;5.20;;;;;;;13.23;62.05;101198.04;127214;1284;109213;-78
2022/10/12 13:57:49;;;;;;;13.80;5.80;;;;;;;13.20;62.34;101195.73;127184;1278;106294;-77
2022/10/12 14:00:54;;;;;;;13.90;5.70;;;;;;;13.16;62.39;101197.51;127184;1278;107528;-77
2022/10/12 14:04:08;;;;;;;14.50;6.70;;;;;;;13.14;62.65;101197.01;127216;1284;109181;-77
2022/10/12 14:07:19;;;;;;;9.40;4.60;;;;;;;13.10;62.31;101193.91;127180;1287;107397;-82
2022/10/12 14:10:29;;;;;;;9.40;4.20;;;;;;;13.04;62.49;101195.56;127391;1279;107326;-83
2022/10/12 14:13:36;;;;;;;9.20;4.40;;;;;;;13.01;62.69;101198.93;127093;1292;105785;-82
2022/10/12 14:16:42;;;;;;;8.40;4.20;;;;;;;12.99;62.92;101194.68;127208;1287;106063;-72